createdAt,value
2022-09-10T00:01:37.762Z,18.20
2022-09-10T00:04:15.264Z,18.00
2022-09-10T00:06:43.568Z,18.20
2022-09-10T00:09:13.134Z,18.40
2022-09-10T00:11:43.163Z,18.30
2022-09-10T00:14:19.942Z,18.40
2022-09-10T00:16:48.548Z,18.40
2022-09-10T00:19:17.284Z,18.20
2022-09-10T00:21:45.087Z,18.30
2022-09-10T00:24:12.403Z,18.20
2022-09-10T00:26:40.389Z,18.20
2022-09-10T00:29:15.867Z,18.10
2022-09-10T00:31:43.536Z,18.30
2022-09-10T00:34:14.250Z,18.20
2022-09-10T00:36:43.993Z,18.30
2022-09-10T00:39:18.331Z,18.20
2022-09-10T00:41:48.938Z,18.20
2022-09-10T00:44:40.791Z,18.20
2022-09-10T00:47:37.603Z,18.20
2022-09-10T00:50:34.503Z,18.20
2022-09-10T00:53:09.277Z,18.10
2022-09-10T00:55:40.935Z,18.10
2022-09-10T00:58:12.655Z,17.90
2022-09-10T01:00:41.864Z,18.00
2022-09-10T01:03:14.508Z,18.10
2022-09-10T01:05:47.289Z,18.20
2022-09-10T01:08:17.753Z,17.90
2022-09-10T01:11:37.788Z,17.90
2022-09-10T01:15:10.217Z,17.70
2022-09-10T01:18:20.208Z,17.60
2022-09-10T01:21:39.816Z,17.80
2022-09-10T01:24:56.560Z,17.50
2022-09-10T01:27:48.577Z,17.40
2022-09-10T01:30:24.451Z,17.20
2022-09-10T01:33:34.130Z,17.40
2022-09-10T01:36:13.917Z,17.30
2022-09-10T01:38:42.134Z,17.20
2022-09-10T01:41:10.297Z,17.00
2022-09-10T01:43:38.647Z,17.10
2022-09-10T01:46:44.230Z,16.90
2022-09-10T01:49:48.601Z,16.90
2022-09-10T01:52:58.919Z,17.00
2022-09-10T01:56:03.020Z,17.10
2022-09-10T01:58:40.605Z,17.00
2022-09-10T02:01:33.848Z,17.00
2022-09-10T02:04:08.696Z,16.80
2022-09-10T02:06:41.244Z,16.90
2022-09-10T02:09:09.087Z,16.80
2022-09-10T02:11:54.940Z,17.00
2022-09-10T02:14:23.192Z,16.80
2022-09-10T02:17:01.093Z,17.10
2022-09-10T02:19:32.009Z,17.00
2022-09-10T02:21:59.609Z,17.10
2022-09-10T02:24:27.224Z,16.90
2022-09-10T02:26:54.736Z,17.10
2022-09-10T02:29:23.097Z,16.80
2022-09-10T02:31:51.343Z,16.90
2022-09-10T02:34:19.184Z,16.80
2022-09-10T02:36:46.930Z,17.00
2022-09-10T02:39:14.208Z,17.10
2022-09-10T02:41:43.188Z,17.10
2022-09-10T02:44:10.707Z,16.90
2022-09-10T02:46:38.246Z,17.10
2022-09-10T02:49:06.155Z,17.10
2022-09-10T02:51:33.420Z,17.00
2022-09-10T02:54:01.434Z,17.10
2022-09-10T02:56:28.723Z,17.20
2022-09-10T02:59:00.633Z,17.20
2022-09-10T03:01:28.531Z,17.20
2022-09-10T03:03:58.314Z,17.10
2022-09-10T03:06:27.710Z,17.10
2022-09-10T03:08:57.780Z,17.20
2022-09-10T03:11:27.403Z,17.30
2022-09-10T03:13:55.589Z,17.20
2022-09-10T03:16:24.217Z,17.20
2022-09-10T03:18:52.379Z,17.20
2022-09-10T03:21:25.131Z,17.20
2022-09-10T03:23:56.790Z,17.30
2022-09-10T03:26:25.545Z,17.40
2022-09-10T03:28:53.326Z,17.50
2022-09-10T03:31:21.722Z,17.30
2022-09-10T03:33:49.551Z,17.40
2022-09-10T03:36:18.239Z,17.40
2022-09-10T03:38:45.527Z,17.50
2022-09-10T03:41:12.843Z,17.30
2022-09-10T03:43:40.214Z,17.40
2022-09-10T03:46:08.019Z,17.20
2022-09-10T03:48:35.344Z,17.30
2022-09-10T03:51:02.679Z,17.20
2022-09-10T03:53:29.931Z,17.20
2022-09-10T03:55:57.180Z,17.30
2022-09-10T03:58:24.684Z,17.30
2022-09-10T04:00:52.884Z,17.40
2022-09-10T04:03:20.305Z,17.40
2022-09-10T04:05:47.925Z,17.40
2022-09-10T04:08:15.757Z,17.40
2022-09-10T04:10:47.322Z,17.40
2022-09-10T04:13:16.022Z,17.30
2022-09-10T04:15:47.597Z,17.20
2022-09-10T04:18:15.001Z,17.50
2022-09-10T04:20:46.143Z,17.50
2022-09-10T04:23:13.714Z,17.30
2022-09-10T04:25:41.016Z,17.30
2022-09-10T04:28:09.152Z,17.40
2022-09-10T04:30:37.364Z,17.40
2022-09-10T04:33:05.192Z,17.30
2022-09-10T04:35:32.504Z,17.30
2022-09-10T04:37:59.768Z,17.20
2022-09-10T04:40:27.415Z,17.20
2022-09-10T04:42:54.700Z,17.10
2022-09-10T04:45:22.091Z,17.40
2022-09-10T04:47:52.519Z,17.30
2022-09-10T04:50:21.948Z,17.30
2022-09-10T04:52:49.239Z,17.10
2022-09-10T04:55:16.564Z,17.40
2022-09-10T04:57:43.832Z,17.20
2022-09-10T05:00:12.410Z,17.20
2022-09-10T05:02:39.704Z,17.10
2022-09-10T05:05:08.052Z,17.20
2022-09-10T05:07:35.323Z,17.40
2022-09-10T05:10:02.596Z,17.40
2022-09-10T05:12:29.945Z,17.50
2022-09-10T05:14:57.205Z,17.50
2022-09-10T05:17:24.535Z,17.30
2022-09-10T05:19:51.812Z,17.30
2022-09-10T05:22:21.699Z,17.30
2022-09-10T05:24:49.080Z,17.40
2022-09-10T05:27:16.983Z,17.10
2022-09-10T05:29:45.028Z,17.20
2022-09-10T05:32:13.351Z,17.40
2022-09-10T05:34:40.675Z,17.20
2022-09-10T05:37:08.812Z,17.40
2022-09-10T05:39:36.138Z,17.30
2022-09-10T05:42:04.654Z,17.40
2022-09-10T05:44:31.906Z,17.30
2022-09-10T05:47:00.070Z,17.20
2022-09-10T05:49:30.507Z,17.20
2022-09-10T05:51:58.108Z,17.30
2022-09-10T05:54:25.616Z,17.20
2022-09-10T05:56:54.090Z,17.10
2022-09-10T05:59:21.349Z,17.00
2022-09-10T06:01:51.319Z,17.20
2022-09-10T06:04:19.805Z,17.30
2022-09-10T06:06:47.872Z,17.00
2022-09-10T06:09:15.235Z,17.00
2022-09-10T06:11:42.961Z,17.30
2022-09-10T06:14:10.221Z,17.10
2022-09-10T06:16:37.505Z,17.20
2022-09-10T06:19:06.108Z,17.20
2022-09-10T06:21:33.472Z,17.20
2022-09-10T06:24:01.647Z,17.10
2022-09-10T06:26:32.964Z,17.10
2022-09-10T06:29:00.673Z,17.20
2022-09-10T06:31:27.929Z,17.00
2022-09-10T06:33:55.287Z,17.20
2022-09-10T06:36:22.610Z,17.20
2022-09-10T06:38:49.877Z,17.40
2022-09-10T06:41:17.242Z,17.20
2022-09-10T06:43:44.944Z,17.40
2022-09-10T06:46:56.745Z,17.30
2022-09-10T06:49:07.144Z,17.30
2022-09-10T06:51:37.581Z,17.40
2022-09-10T06:54:05.293Z,17.40
2022-09-10T06:56:32.548Z,17.20
2022-09-10T06:59:02.350Z,17.30
2022-09-10T07:01:29.949Z,17.40
2022-09-10T07:04:01.828Z,17.40
2022-09-10T07:06:33.660Z,17.50
2022-09-10T07:09:01.392Z,17.50
2022-09-10T07:11:30.388Z,17.40
2022-09-10T07:13:59.488Z,17.40
2022-09-10T07:16:28.884Z,17.50
2022-09-10T07:19:00.124Z,17.40
2022-09-10T07:21:29.746Z,17.40
2022-09-10T07:24:03.321Z,17.50
2022-09-10T07:26:30.868Z,17.40
2022-09-10T07:28:59.877Z,17.40
2022-09-10T07:31:34.520Z,17.40
2022-09-10T07:34:03.474Z,17.50
2022-09-10T07:36:31.769Z,17.60
2022-09-10T07:39:03.149Z,17.60
2022-09-10T07:41:34.395Z,17.60
2022-09-10T07:44:01.928Z,17.70
2022-09-10T07:46:30.805Z,17.80
2022-09-10T07:49:01.157Z,17.70
2022-09-10T07:51:30.651Z,17.80
2022-09-10T07:54:00.024Z,17.90
2022-09-10T07:56:27.630Z,17.80
2022-09-10T07:58:57.002Z,17.80
2022-09-10T08:01:24.416Z,17.80
2022-09-10T08:03:56.260Z,17.70
2022-09-10T08:06:23.995Z,17.40
2022-09-10T08:08:51.264Z,17.20
2022-09-10T08:11:20.596Z,17.40
2022-09-10T08:13:54.291Z,17.40
2022-09-10T08:16:25.242Z,17.30
2022-09-10T08:18:55.847Z,16.80
2022-09-10T08:21:24.812Z,16.80
2022-09-10T08:23:54.798Z,16.70
2022-09-10T08:26:25.388Z,16.90
2022-09-10T08:28:55.886Z,16.40
2022-09-10T08:31:26.322Z,16.60
2022-09-10T08:33:56.831Z,16.50
2022-09-10T08:36:24.534Z,16.70
2022-09-10T08:38:56.998Z,16.50
2022-09-10T08:41:49.446Z,16.50
2022-09-10T08:45:24.005Z,16.60
2022-09-10T08:48:17.450Z,16.80
2022-09-10T08:51:00.079Z,16.90
2022-09-10T08:53:48.942Z,16.80
2022-09-10T08:56:23.446Z,16.90
2022-09-10T08:59:33.413Z,16.90
2022-09-10T09:03:03.067Z,17.10
2022-09-10T09:06:04.116Z,17.30
2022-09-10T09:08:42.339Z,17.30
2022-09-10T09:12:38.225Z,17.40
2022-09-10T09:15:22.323Z,17.40
2022-09-10T09:18:52.179Z,17.40
2022-09-10T09:21:51.600Z,17.40
2022-09-10T09:24:57.885Z,17.40
2022-09-10T09:27:34.896Z,17.40
2022-09-10T09:30:23.869Z,17.50
2022-09-10T09:32:52.297Z,17.50
2022-09-10T09:35:34.712Z,17.50
2022-09-10T09:38:41.515Z,17.50
2022-09-10T09:41:37.097Z,17.50
2022-09-10T09:44:36.562Z,17.50
2022-09-10T09:47:03.976Z,17.50
2022-09-10T09:49:31.632Z,17.60
2022-09-10T09:52:01.548Z,17.50
2022-09-10T09:55:03.163Z,17.40
2022-09-10T09:57:20.867Z,17.60
2022-09-10T09:59:50.805Z,17.60
2022-09-10T10:02:25.366Z,17.50
2022-09-10T10:05:25.553Z,17.50
2022-09-10T10:07:52.899Z,17.40
2022-09-10T10:10:28.063Z,17.60
2022-09-10T10:12:56.110Z,17.40
2022-09-10T10:15:42.415Z,17.60
2022-09-10T10:18:31.985Z,17.80
2022-09-10T10:21:36.961Z,17.90
2022-09-10T10:24:05.922Z,17.90
2022-09-10T10:26:35.606Z,17.90
2022-09-10T10:29:21.013Z,17.70
2022-09-10T10:31:50.976Z,17.90
2022-09-10T10:35:11.412Z,18.00
2022-09-10T10:38:13.889Z,18.20
2022-09-10T10:41:08.054Z,18.00
2022-09-10T10:44:38.520Z,18.30
2022-09-10T10:47:54.652Z,18.60
2022-09-10T10:51:03.234Z,18.50
2022-09-10T10:54:37.430Z,18.90
2022-09-10T10:57:49.725Z,19.00
2022-09-10T11:00:20.555Z,19.40
2022-09-10T11:03:14.427Z,19.30
2022-09-10T11:06:08.177Z,19.30
2022-09-10T11:08:46.013Z,19.30
2022-09-10T11:11:34.901Z,19.50
2022-09-10T11:14:27.222Z,19.60
2022-09-10T11:17:17.631Z,19.40
2022-09-10T11:20:28.445Z,19.80
2022-09-10T11:23:31.248Z,19.30
2022-09-10T11:26:26.666Z,19.40
2022-09-10T11:29:22.791Z,19.40
2022-09-10T11:32:35.116Z,19.30
2022-09-10T11:35:28.986Z,19.20
2022-09-10T11:38:58.291Z,19.40
2022-09-10T11:41:32.772Z,19.80
2022-09-10T11:44:59.474Z,20.30
2022-09-10T11:48:10.363Z,20.30
2022-09-10T11:51:25.865Z,20.00
2022-09-10T11:53:55.630Z,20.00
2022-09-10T11:57:25.945Z,19.80
2022-09-10T12:00:20.240Z,19.60
2022-09-10T12:03:49.758Z,19.40
2022-09-10T12:06:36.264Z,19.30
2022-09-10T12:09:34.985Z,19.10
2022-09-10T12:12:40.375Z,19.00
2022-09-10T12:15:24.828Z,18.90
2022-09-10T12:18:18.603Z,19.00
2022-09-10T12:21:02.584Z,19.20
2022-09-10T12:23:39.873Z,19.40
2022-09-10T12:26:19.767Z,19.60
2022-09-10T12:28:52.599Z,19.60
2022-09-10T12:31:22.691Z,19.70
2022-09-10T12:33:51.065Z,19.70
2022-09-10T12:36:27.177Z,19.60
2022-09-10T12:39:27.256Z,19.40
2022-09-10T12:41:56.682Z,19.20
2022-09-10T12:44:36.065Z,19.30
2022-09-10T12:47:28.287Z,19.20
2022-09-10T12:50:30.551Z,19.30
2022-09-10T12:53:52.749Z,19.50
2022-09-10T12:57:26.001Z,19.30
2022-09-10T13:00:38.119Z,19.30
2022-09-10T13:03:07.689Z,19.00
2022-09-10T13:05:53.283Z,19.00
2022-09-10T13:08:43.251Z,19.20
2022-09-10T13:11:23.387Z,19.30
2022-09-10T13:14:05.720Z,19.40
2022-09-10T13:16:33.581Z,19.40
2022-09-10T13:19:12.837Z,19.30
2022-09-10T13:21:46.631Z,19.30
2022-09-10T13:24:36.142Z,19.10
2022-09-10T13:27:40.741Z,19.10
2022-09-10T13:30:22.313Z,19.20
2022-09-10T13:33:05.258Z,18.90
2022-09-10T13:36:03.526Z,18.80
2022-09-10T13:39:58.309Z,18.90
2022-09-10T13:43:20.088Z,18.90
2022-09-10T13:46:04.973Z,18.40
2022-09-10T13:48:57.801Z,18.60
2022-09-10T13:51:58.585Z,18.90
2022-09-10T13:54:35.810Z,18.90
2022-09-10T13:57:19.133Z,18.90
2022-09-10T13:59:54.613Z,18.80
2022-09-10T14:02:39.347Z,18.80
2022-09-10T14:06:11.917Z,18.90
2022-09-10T14:09:07.152Z,19.20
2022-09-10T14:11:41.520Z,19.20
2022-09-10T14:14:22.842Z,19.30
2022-09-10T14:16:57.087Z,19.30
2022-09-10T14:20:02.300Z,19.30
2022-09-10T14:22:31.388Z,19.30
2022-09-10T14:25:04.100Z,19.30
2022-09-10T14:27:42.157Z,19.40
2022-09-10T14:30:18.474Z,19.40
2022-09-10T14:32:46.307Z,19.30
2022-09-10T14:35:47.213Z,19.30
2022-09-10T14:38:38.116Z,19.40
2022-09-10T14:41:25.395Z,19.50
2022-09-10T14:44:22.231Z,19.30
2022-09-10T14:47:08.048Z,19.40
2022-09-10T14:49:41.300Z,19.70
2022-09-10T14:52:11.087Z,19.70
2022-09-10T14:54:38.379Z,19.80
2022-09-10T14:57:15.703Z,19.40
2022-09-10T14:59:47.522Z,19.60
2022-09-10T15:02:27.068Z,19.50
2022-09-10T15:04:55.264Z,19.70
2022-09-10T15:07:23.777Z,19.50
2022-09-10T15:09:53.738Z,19.40
2022-09-10T15:12:30.892Z,19.70
2022-09-10T15:14:59.052Z,19.40
2022-09-10T15:17:27.011Z,19.30
2022-09-10T15:19:55.903Z,19.40
2022-09-10T15:22:31.419Z,19.10
2022-09-10T15:25:09.637Z,19.10
2022-09-10T15:27:38.057Z,18.80
2022-09-10T15:30:07.259Z,18.90
2022-09-10T15:32:34.569Z,18.90
2022-09-10T15:35:02.671Z,18.90
2022-09-10T15:37:29.923Z,18.80
2022-09-10T15:39:57.497Z,18.80
2022-09-10T15:42:25.648Z,18.60
2022-09-10T15:44:52.893Z,18.70
2022-09-10T15:47:20.225Z,18.60
2022-09-10T15:49:47.484Z,18.50
2022-09-10T15:52:14.776Z,18.60
2022-09-10T15:54:43.891Z,18.70
2022-09-10T15:57:11.675Z,18.60
2022-09-10T15:59:39.039Z,18.70
2022-09-10T16:02:13.165Z,18.70
2022-09-10T16:04:43.045Z,18.80
2022-09-10T16:07:11.357Z,18.80
2022-09-10T16:09:43.517Z,18.70
2022-09-10T16:12:10.805Z,18.50
2022-09-10T16:14:38.208Z,18.30
2022-09-10T16:17:10.406Z,18.50
2022-09-10T16:19:38.458Z,18.50
2022-09-10T16:22:06.214Z,18.40
2022-09-10T16:24:33.520Z,18.30
2022-09-10T16:27:01.006Z,18.10
2022-09-10T16:29:28.605Z,18.40
2022-09-10T16:31:56.516Z,18.60
2022-09-10T16:34:24.440Z,18.80
2022-09-10T16:36:52.388Z,18.80
2022-09-10T16:39:20.657Z,18.50
2022-09-10T16:41:50.758Z,18.50
2022-09-10T16:44:19.172Z,18.50
2022-09-10T16:46:48.037Z,18.70
2022-09-10T16:49:18.492Z,18.50
2022-09-10T16:51:48.956Z,18.50
2022-09-10T16:54:19.996Z,18.60
2022-09-10T16:56:49.216Z,18.80
2022-09-10T16:59:23.821Z,18.70
2022-09-10T17:01:52.595Z,18.70
2022-09-10T17:04:28.352Z,18.50
2022-09-10T17:06:57.991Z,18.60
2022-09-10T17:09:25.963Z,18.60
2022-09-10T17:11:53.864Z,18.60
2022-09-10T17:14:22.215Z,18.50
2022-09-10T17:16:49.963Z,18.50
2022-09-10T17:19:26.333Z,18.70
2022-09-10T17:21:56.791Z,18.40
2022-09-10T17:24:26.930Z,18.70
2022-09-10T17:26:55.390Z,18.70
2022-09-10T17:29:25.768Z,18.70
2022-09-10T17:31:55.241Z,18.70
2022-09-10T17:34:24.490Z,18.80
2022-09-10T17:36:52.346Z,18.50
2022-09-10T17:39:20.537Z,18.40
2022-09-10T17:41:48.374Z,18.60
2022-09-10T17:44:16.075Z,18.50
2022-09-10T17:46:43.450Z,18.70
2022-09-10T17:49:14.874Z,18.60
2022-09-10T17:51:43.176Z,18.70
2022-09-10T17:54:11.073Z,18.70
2022-09-10T17:56:38.459Z,18.70
2022-09-10T17:59:06.701Z,18.60
2022-09-10T18:01:40.251Z,18.70
2022-09-10T18:04:12.757Z,18.60
2022-09-10T18:06:40.818Z,18.80
2022-09-10T18:09:08.946Z,18.70
2022-09-10T18:11:40.501Z,18.50
2022-09-10T18:14:13.517Z,18.30
2022-09-10T18:16:40.969Z,18.40
2022-09-10T18:19:16.224Z,18.40
2022-09-10T18:21:47.332Z,18.40
2022-09-10T18:24:24.204Z,18.40
2022-09-10T18:26:54.790Z,18.20
2022-09-10T18:29:29.966Z,18.20
2022-09-10T18:32:03.054Z,18.40
2022-09-10T18:34:31.437Z,18.30
2022-09-10T18:37:02.246Z,18.20
2022-09-10T18:39:33.594Z,18.30
2022-09-10T18:42:01.576Z,18.40
2022-09-10T18:44:36.919Z,18.40
2022-09-10T18:47:17.812Z,18.50
2022-09-10T18:49:54.981Z,18.30
2022-09-10T18:52:22.998Z,18.30
2022-09-10T18:54:51.131Z,18.30
2022-09-10T18:57:18.383Z,18.20
2022-09-10T18:59:45.666Z,18.10
2022-09-10T19:02:13.104Z,18.10
2022-09-10T19:05:00.447Z,18.20
2022-09-10T19:07:27.925Z,18.30
2022-09-10T19:09:55.190Z,18.20
2022-09-10T19:12:22.479Z,18.10
2022-09-10T19:14:52.823Z,18.20
2022-09-10T19:17:20.168Z,18.20
2022-09-10T19:19:47.567Z,18.20
2022-09-10T19:22:16.656Z,18.20
2022-09-10T19:24:54.666Z,18.00
2022-09-10T19:27:24.263Z,18.20
2022-09-10T19:29:51.882Z,18.20
2022-09-10T19:32:20.213Z,18.10
2022-09-10T19:34:51.860Z,18.30
2022-09-10T19:37:19.834Z,18.20
2022-09-10T19:39:47.595Z,18.20
2022-09-10T19:42:15.187Z,18.30
2022-09-10T19:44:43.471Z,18.30
2022-09-10T19:47:13.921Z,18.30
2022-09-10T19:49:41.213Z,18.30
2022-09-10T19:52:10.939Z,18.30
2022-09-10T19:54:38.748Z,18.40
2022-09-10T19:57:07.285Z,18.30
2022-09-10T19:59:35.560Z,18.10
2022-09-10T20:02:02.929Z,18.20
2022-09-10T20:04:30.245Z,18.00
2022-09-10T20:06:57.512Z,18.10
2022-09-10T20:09:24.851Z,17.90
2022-09-10T20:11:52.446Z,18.00
2022-09-10T20:14:20.180Z,18.10
2022-09-10T20:16:48.094Z,18.10
2022-09-10T20:19:19.055Z,17.70
2022-09-10T20:21:47.599Z,17.90
2022-09-10T20:24:16.564Z,18.00
2022-09-10T20:26:46.281Z,18.10
2022-09-10T20:29:18.399Z,18.10
2022-09-10T20:31:47.028Z,17.90
2022-09-10T20:34:20.196Z,17.90
2022-09-10T20:36:51.315Z,17.90
2022-09-10T20:39:26.858Z,18.00
2022-09-10T20:41:54.330Z,17.80
2022-09-10T20:44:22.956Z,17.80
2022-09-10T20:46:50.873Z,17.80
2022-09-10T20:49:18.468Z,17.90
2022-09-10T20:51:45.942Z,17.80
2022-09-10T20:54:20.116Z,17.90
2022-09-10T20:56:48.322Z,17.90
2022-09-10T20:59:17.985Z,17.90
2022-09-10T21:01:47.116Z,17.90
2022-09-10T21:04:15.201Z,17.90
2022-09-10T21:06:42.779Z,17.90
2022-09-10T21:09:10.989Z,18.00
2022-09-10T21:11:38.534Z,18.00
2022-09-10T21:14:08.912Z,18.00
2022-09-10T21:16:44.040Z,17.80
2022-09-10T21:19:16.289Z,17.80
2022-09-10T21:21:49.452Z,17.80
2022-09-10T21:24:22.413Z,18.00
2022-09-10T21:26:50.479Z,17.90
2022-09-10T21:29:21.153Z,18.00
2022-09-10T21:31:50.708Z,18.00
2022-09-10T21:34:19.225Z,18.00
2022-09-10T21:36:46.753Z,18.10
2022-09-10T21:39:17.789Z,18.10
2022-09-10T21:41:50.880Z,18.00
2022-09-10T21:44:24.989Z,18.10
2022-09-10T21:46:53.184Z,18.00
2022-09-10T21:49:21.078Z,18.00
2022-09-10T21:51:48.500Z,18.10
2022-09-10T21:54:21.034Z,18.00
2022-09-10T21:56:52.336Z,18.00
2022-09-10T21:59:21.391Z,18.00
2022-09-10T22:01:49.471Z,18.00
2022-09-10T22:04:22.139Z,18.00
2022-09-10T22:06:51.311Z,18.00
2022-09-10T22:09:19.887Z,18.00
2022-09-10T22:11:51.886Z,18.00
2022-09-10T22:14:24.031Z,18.10
2022-09-10T22:16:52.520Z,18.00
2022-09-10T22:19:26.043Z,18.10
2022-09-10T22:21:54.357Z,18.00
2022-09-10T22:24:22.205Z,18.00
2022-09-10T22:26:50.019Z,18.00
2022-09-10T22:29:20.368Z,18.00
2022-09-10T22:31:49.660Z,18.10
2022-09-10T22:34:18.693Z,18.00
2022-09-10T22:36:47.333Z,18.00
2022-09-10T22:39:21.837Z,17.90
2022-09-10T22:41:51.196Z,18.00
2022-09-10T22:44:19.936Z,17.90
2022-09-10T22:46:47.973Z,17.90
2022-09-10T22:49:16.464Z,17.90
2022-09-10T22:51:44.533Z,17.60
2022-09-10T22:54:14.067Z,17.90
2022-09-10T22:56:42.048Z,17.90
2022-09-10T22:59:13.992Z,17.80
2022-09-10T23:01:45.886Z,17.80
2022-09-10T23:04:13.528Z,17.60
2022-09-10T23:06:40.873Z,17.60
2022-09-10T23:09:17.373Z,17.60
2022-09-10T23:11:46.464Z,17.50
2022-09-10T23:14:19.920Z,17.60
2022-09-10T23:16:51.712Z,17.40
2022-09-10T23:19:25.035Z,17.40
2022-09-10T23:21:55.156Z,17.50
2022-09-10T23:24:26.494Z,17.60
2022-09-10T23:26:54.504Z,17.60
2022-09-10T23:29:23.336Z,17.60
2022-09-10T23:31:53.359Z,17.60
2022-09-10T23:34:22.480Z,17.60
2022-09-10T23:36:51.644Z,17.50
2022-09-10T23:39:24.377Z,17.50
2022-09-10T23:41:57.025Z,17.50
2022-09-10T23:44:25.370Z,17.40
2022-09-10T23:46:53.538Z,17.40
2022-09-10T23:49:21.378Z,17.30
2022-09-10T23:51:49.018Z,17.20
2022-09-10T23:54:17.862Z,17.20
2022-09-10T23:56:48.213Z,17.10
2022-09-10T23:59:17.983Z,17.10
